Time;durP1;ratioP1;P1;durP2;ratioP2;P2;SDS_P1;SDS_P2;PMS_P1;PMS_P2;Temp;Humidity;BMP_temperature;BMP_pressure;BME280_temperature;BME280_humidity;BME280_pressure;Samples;Min_cycle;Max_cycle;Signal;HPM_P1;HPM_P2
2022/01/25 07:02:08;;;;;;;70.22;32.13;;;;;;;;;;5029459;23;20235;-84
2022/01/25 07:04:36;;;;;;;69.20;31.48;;;;;;;;;;4839901;29;20121;-83
2022/01/25 07:07:03;;;;;;;75.95;32.22;;;;;;;;;;4853823;29;20081;-84
2022/01/25 07:09:30;;;;;;;72.53;32.33;;;;;;;;;;4838385;29;20045;-84
2022/01/25 07:11:57;;;;;;;65.50;31.40;;;;;;;;;;4853737;29;20058;-86
2022/01/25 07:14:24;;;;;;;68.57;30.17;;;;;;;;;;4856024;29;20061;-86
2022/01/25 07:16:51;;;;;;;70.65;31.15;;;;;;;;;;4856267;29;20076;-90
2022/01/25 07:19:18;;;;;;;61.00;30.13;;;;;;;;;;4858792;29;20077;-83
2022/01/25 07:21:45;;;;;;;71.13;32.00;;;;;;;;;;4859060;29;20057;-88
2022/01/25 07:24:11;;;;;;;74.35;31.98;;;;;;;;;;4856748;29;20045;-89
2022/01/25 07:26:38;;;;;;;70.85;31.40;;;;;;;;;;4842117;29;20088;-89
2022/01/25 07:29:05;;;;;;;66.72;31.20;;;;;;;;;;4859707;29;20081;-87
2022/01/25 07:31:31;;;;;;;67.32;30.23;;;;;;;;;;4856813;29;20097;-87
2022/01/25 07:34:03;;;;;;;68.53;30.20;;;;;;;;;;4856507;29;20421;-89
2022/01/25 07:36:30;;;;;;;74.03;31.42;;;;;;;;;;4858661;29;20070;-89
2022/01/25 07:39:11;;;;;;;74.72;33.50;;;;;;;;;;4858963;29;20422;-88
2022/01/25 07:41:40;;;;;;;65.45;29.88;;;;;;;;;;4858538;29;20069;-90
2022/01/25 07:44:13;;;;;;;65.80;31.10;;;;;;;;;;4841469;29;20050;-88
2022/01/25 07:46:40;;;;;;;70.28;30.92;;;;;;;;;;4857370;29;20046;-89
2022/01/25 07:49:10;;;;;;;67.30;31.73;;;;;;;;;;4858671;29;20088;-88
2022/01/25 07:51:41;;;;;;;66.93;28.63;;;;;;;;;;4857763;29;20502;-89
2022/01/25 07:54:08;;;;;;;76.20;32.50;;;;;;;;;;4854570;29;20046;-88
2022/01/25 07:56:34;;;;;;;67.97;29.38;;;;;;;;;;4858628;29;20061;-88
2022/01/25 07:59:01;;;;;;;65.68;29.50;;;;;;;;;;4844561;29;20537;-89
2022/01/25 08:01:28;;;;;;;65.90;29.15;;;;;;;;;;4857978;29;20053;-89
2022/01/25 08:03:55;;;;;;;60.92;27.67;;;;;;;;;;4858911;29;20045;-88
2022/01/25 08:06:21;;;;;;;66.32;28.90;;;;;;;;;;4858485;29;20094;-88
2022/01/25 08:08:48;;;;;;;63.97;27.35;;;;;;;;;;4841764;29;20061;-88
2022/01/25 08:11:17;;;;;;;62.22;27.73;;;;;;;;;;4859173;29;20111;-88
2022/01/25 08:13:49;;;;;;;60.28;28.13;;;;;;;;;;4852969;29;20132;-88
2022/01/25 08:16:19;;;;;;;63.58;28.23;;;;;;;;;;4856750;29;20046;-88
2022/01/25 08:19:00;;;;;;;60.03;26.95;;;;;;;;;;4852908;29;20124;-88
2022/01/25 08:21:30;;;;;;;59.20;27.20;;;;;;;;;;4857283;29;20053;-88
2022/01/25 08:23:59;;;;;;;59.35;27.70;;;;;;;;;;4840753;29;20137;-88
2022/01/25 08:26:33;;;;;;;54.25;26.60;;;;;;;;;;4858895;29;20137;-88
2022/01/25 08:29:04;;;;;;;61.88;26.27;;;;;;;;;;4845917;29;20061;-88
2022/01/25 08:31:35;;;;;;;57.67;27.48;;;;;;;;;;4856573;29;20400;-88
2022/01/25 08:34:11;;;;;;;59.08;25.67;;;;;;;;;;4857854;29;20049;-87
2022/01/25 08:36:55;;;;;;;58.40;26.02;;;;;;;;;;4803217;29;20890;-87
2022/01/25 08:39:32;;;;;;;57.17;27.42;;;;;;;;;;4802736;29;20051;-88
2022/01/25 08:42:05;;;;;;;65.28;29.80;;;;;;;;;;4802002;29;20059;-87
2022/01/25 08:44:36;;;;;;;62.53;27.83;;;;;;;;;;4801024;29;20055;-88
2022/01/25 08:47:03;;;;;;;62.20;29.38;;;;;;;;;;4802061;29;20058;-88
2022/01/25 08:49:34;;;;;;;56.53;26.90;;;;;;;;;;4801638;29;20066;-88
2022/01/25 08:52:15;;;;;;;59.83;28.25;;;;;;;;;;4801464;29;20046;-88
2022/01/25 08:54:44;;;;;;;57.88;27.58;;;;;;;;;;4786874;29;20054;-88
2022/01/25 08:57:11;;;;;;;60.92;28.30;;;;;;;;;;4784341;29;20046;-88
2022/01/25 08:59:39;;;;;;;65.50;30.30;;;;;;;;;;4801956;29;20061;-88
2022/01/25 09:02:06;;;;;;;68.95;32.65;;;;;;;;;;4801787;29;20493;-87
2022/01/25 09:04:33;;;;;;;66.47;34.17;;;;;;;;;;4785134;29;20062;-88
2022/01/25 09:06:59;;;;;;;77.57;33.88;;;;;;;;;;4793540;29;20073;-88
2022/01/25 09:09:26;;;;;;;62.33;29.25;;;;;;;;;;4835342;29;20054;-88
2022/01/25 09:11:53;;;;;;;64.95;30.48;;;;;;;;;;4857497;29;20058;-88
2022/01/25 09:14:19;;;;;;;59.65;29.48;;;;;;;;;;4857868;29;20053;-88
2022/01/25 09:16:46;;;;;;;61.78;29.20;;;;;;;;;;4858934;29;20098;-88
2022/01/25 09:19:13;;;;;;;58.65;27.70;;;;;;;;;;4856721;29;20422;-89
2022/01/25 09:21:41;;;;;;;56.83;29.00;;;;;;;;;;4841059;29;20050;-88
2022/01/25 09:24:08;;;;;;;64.85;31.50;;;;;;;;;;4839316;29;20094;-88
2022/01/25 09:26:35;;;;;;;63.58;31.10;;;;;;;;;;4841481;29;20046;-88
2022/01/25 09:29:03;;;;;;;62.05;30.77;;;;;;;;;;4858887;29;20045;-88
2022/01/25 09:31:31;;;;;;;61.97;29.55;;;;;;;;;;4834903;29;20049;-88
2022/01/25 09:33:58;;;;;;;56.88;30.08;;;;;;;;;;4855565;29;20073;-88
2022/01/25 09:36:25;;;;;;;61.72;31.23;;;;;;;;;;4856479;29;20053;-88
2022/01/25 09:38:54;;;;;;;63.90;31.27;;;;;;;;;;4839300;29;20050;-88
2022/01/25 09:41:21;;;;;;;59.25;30.27;;;;;;;;;;4856385;29;20053;-88
2022/01/25 09:43:48;;;;;;;62.45;30.02;;;;;;;;;;4856555;29;20110;-87
2022/01/25 09:46:15;;;;;;;62.60;32.58;;;;;;;;;;4856308;29;20566;-88
2022/01/25 09:48:42;;;;;;;60.72;32.53;;;;;;;;;;4840517;29;20049;-89
2022/01/25 09:51:10;;;;;;;63.10;32.00;;;;;;;;;;4840600;29;20045;-88
2022/01/25 09:53:38;;;;;;;64.70;33.83;;;;;;;;;;4856599;29;20859;-87
2022/01/25 09:56:06;;;;;;;60.30;32.35;;;;;;;;;;4841268;29;20053;-86
2022/01/25 09:58:32;;;;;;;62.55;33.08;;;;;;;;;;4857118;29;20057;-87
2022/01/25 10:01:01;;;;;;;61.60;31.08;;;;;;;;;;4850955;29;20056;-87
2022/01/25 10:03:35;;;;;;;55.08;28.45;;;;;;;;;;4856485;29;20559;-88
2022/01/25 10:06:03;;;;;;;52.88;27.88;;;;;;;;;;4854910;29;20141;-88
2022/01/25 10:08:33;;;;;;;48.55;26.60;;;;;;;;;;4857040;29;20118;-88
2022/01/25 10:11:11;;;;;;;50.60;27.35;;;;;;;;;;4853135;29;20404;-88
2022/01/25 10:13:48;;;;;;;51.80;25.92;;;;;;;;;;4856345;29;20069;-89
2022/01/25 10:16:18;;;;;;;51.42;23.85;;;;;;;;;;4856190;29;20094;-88
2022/01/25 10:18:45;;;;;;;42.58;22.02;;;;;;;;;;4840175;29;20098;-88
2022/01/25 10:21:21;;;;;;;44.85;22.52;;;;;;;;;;4851174;29;20146;-87
2022/01/25 10:24:08;;;;;;;45.78;23.00;;;;;;;;;;4841141;29;20479;-88
2022/01/25 10:26:39;;;;;;;37.95;20.92;;;;;;;;;;4839907;29;20106;-88
2022/01/25 10:29:14;;;;;;;41.50;20.13;;;;;;;;;;4853821;29;20045;-87
2022/01/25 10:31:47;;;;;;;33.70;18.88;;;;;;;;;;4856921;29;20430;-88
2022/01/25 10:34:16;;;;;;;37.53;20.45;;;;;;;;;;4842204;29;20060;-87
2022/01/25 10:36:46;;;;;;;39.78;19.70;;;;;;;;;;4857321;29;20050;-87
2022/01/25 10:39:19;;;;;;;38.90;19.05;;;;;;;;;;4856102;29;20523;-87
2022/01/25 10:41:46;;;;;;;41.08;20.50;;;;;;;;;;4843436;29;20055;-87
2022/01/25 10:44:13;;;;;;;45.50;21.15;;;;;;;;;;4857361;29;20061;-87
2022/01/25 10:46:41;;;;;;;42.22;18.77;;;;;;;;;;4855737;29;20057;-87
2022/01/25 10:49:10;;;;;;;35.47;19.83;;;;;;;;;;4838044;29;20050;-86
2022/01/25 10:51:38;;;;;;;39.63;19.45;;;;;;;;;;4854459;29;20301;-87
2022/01/25 10:54:14;;;;;;;36.92;18.92;;;;;;;;;;4853963;29;20430;-86
2022/01/25 10:56:57;;;;;;;32.95;19.30;;;;;;;;;;4855519;29;20061;-87
2022/01/25 10:59:28;;;;;;;39.55;19.15;;;;;;;;;;4857190;29;20065;-87
2022/01/25 11:02:00;;;;;;;38.25;19.23;;;;;;;;;;4855297;29;20054;-87
2022/01/25 11:04:32;;;;;;;39.63;19.15;;;;;;;;;;4853900;29;20049;-87
2022/01/25 11:07:10;;;;;;;36.25;18.77;;;;;;;;;;4854233;29;20041;-87
2022/01/25 11:09:43;;;;;;;32.65;19.30;;;;;;;;;;4837855;29;20049;-86
2022/01/25 11:12:15;;;;;;;32.03;17.98;;;;;;;;;;4854120;29;20041;-88
2022/01/25 11:14:58;;;;;;;38.75;18.60;;;;;;;;;;4823927;29;20118;-87
2022/01/25 11:17:30;;;;;;;37.40;19.45;;;;;;;;;;4840123;29;20110;-86
2022/01/25 11:19:58;;;;;;;37.42;19.23;;;;;;;;;;4856099;29;20136;-86
2022/01/25 11:22:26;;;;;;;35.30;18.13;;;;;;;;;;4853666;29;20061;-86
2022/01/25 11:25:02;;;;;;;36.47;18.38;;;;;;;;;;4854031;29;20053;-87
2022/01/25 11:27:30;;;;;;;28.60;17.17;;;;;;;;;;4853936;29;20076;-87
2022/01/25 11:30:11;;;;;;;29.35;16.02;;;;;;;;;;4838182;29;20432;-86
2022/01/25 11:32:40;;;;;;;29.80;16.00;;;;;;;;;;4838272;29;20061;-87
2022/01/25 11:35:10;;;;;;;32.53;16.13;;;;;;;;;;4856812;29;20053;-86
2022/01/25 11:37:40;;;;;;;26.73;14.63;;;;;;;;;;4853473;29;20122;-86
2022/01/25 11:40:29;;;;;;;24.20;14.60;;;;;;;;;;4853755;29;20052;-86
2022/01/25 11:43:01;;;;;;;28.08;14.77;;;;;;;;;;4854233;29;20054;-86
2022/01/25 11:45:31;;;;;;;25.40;14.20;;;;;;;;;;4853289;29;20479;-89
2022/01/25 11:47:58;;;;;;;26.27;15.52;;;;;;;;;;4854222;29;20118;-89
2022/01/25 11:50:32;;;;;;;26.05;13.77;;;;;;;;;;4853647;29;20053;-86
2022/01/25 11:53:07;;;;;;;26.85;15.23;;;;;;;;;;4852711;29;20058;-86
2022/01/25 11:55:51;;;;;;;28.55;15.55;;;;;;;;;;4851765;29;20041;-86
2022/01/25 11:58:23;;;;;;;28.02;16.40;;;;;;;;;;4834908;29;20057;-84
2022/01/25 12:00:57;;;;;;;32.03;14.85;;;;;;;;;;4829636;29;20455;-86
2022/01/25 12:03:30;;;;;;;31.88;15.80;;;;;;;;;;4850750;29;20408;-86
2022/01/25 12:06:07;;;;;;;30.05;16.13;;;;;;;;;;4855008;29;20057;-85
2022/01/25 12:11:41;;;;;;;25.80;15.18;;;;;;;;;;4854544;29;20053;-86
2022/01/25 12:14:27;;;;;;;23.98;14.82;;;;;;;;;;4838630;29;20515;-86
2022/01/25 12:16:55;;;;;;;29.10;14.57;;;;;;;;;;4854428;29;20153;-88
2022/01/25 12:19:36;;;;;;;26.83;14.23;;;;;;;;;;4838899;29;20404;-88
2022/01/25 12:22:15;;;;;;;24.27;14.52;;;;;;;;;;4849892;29;20189;-89
2022/01/25 12:24:50;;;;;;;28.60;15.10;;;;;;;;;;4850534;29;20053;-88
2022/01/25 12:27:34;;;;;;;27.85;14.77;;;;;;;;;;4854845;29;20049;-88
2022/01/25 12:30:17;;;;;;;24.08;15.13;;;;;;;;;;4854886;29;20435;-88
2022/01/25 12:32:48;;;;;;;33.20;13.68;;;;;;;;;;4856206;29;20109;-88
2022/01/25 12:35:19;;;;;;;28.25;13.75;;;;;;;;;;4856374;29;20125;-88
2022/01/25 12:37:48;;;;;;;24.73;12.90;;;;;;;;;;4860378;29;20113;-87
2022/01/25 12:40:25;;;;;;;26.48;12.60;;;;;;;;;;4859482;29;20164;-88
2022/01/25 12:43:18;;;;;;;20.83;13.13;;;;;;;;;;4856436;29;20072;-87
2022/01/25 12:45:49;;;;;;;24.15;12.85;;;;;;;;;;4856546;29;20098;-87
2022/01/25 12:48:20;;;;;;;23.27;12.73;;;;;;;;;;4840689;29;20654;-86
2022/01/25 12:50:50;;;;;;;24.25;12.23;;;;;;;;;;4842152;29;20102;-86
2022/01/25 12:53:22;;;;;;;19.17;11.73;;;;;;;;;;4859597;29;20073;-87
2022/01/25 12:55:53;;;;;;;23.70;12.35;;;;;;;;;;4842613;29;20049;-88
2022/01/25 12:58:22;;;;;;;20.27;11.95;;;;;;;;;;4839229;29;20468;-87
2022/01/25 13:00:51;;;;;;;24.88;13.35;;;;;;;;;;4856010;29;20053;-88
2022/01/25 13:03:39;;;;;;;21.70;12.43;;;;;;;;;;4839294;29;20053;-86
2022/01/25 13:06:15;;;;;;;25.00;12.77;;;;;;;;;;4856666;29;20422;-86
2022/01/25 13:09:01;;;;;;;23.42;11.90;;;;;;;;;;4856425;29;20109;-87
2022/01/25 13:11:57;;;;;;;22.80;12.13;;;;;;;;;;4839577;29;20058;-87
2022/01/25 13:17:00;;;;;;;21.52;11.95;;;;;;;;;;4856329;29;20450;-86
2022/01/25 13:19:33;;;;;;;21.70;12.13;;;;;;;;;;4855440;29;20056;-88
2022/01/25 13:22:06;;;;;;;23.65;12.48;;;;;;;;;;4855176;29;20102;-87
2022/01/25 13:25:13;;;;;;;20.63;12.27;;;;;;;;;;4855821;29;20053;-88
2022/01/25 13:27:54;;;;;;;21.48;11.65;;;;;;;;;;4855510;29;20045;-87
2022/01/25 13:30:42;;;;;;;19.73;11.82;;;;;;;;;;4854785;29;20050;-87
2022/01/25 13:33:12;;;;;;;23.55;10.90;;;;;;;;;;4855776;29;20042;-87
2022/01/25 13:35:47;;;;;;;21.42;11.35;;;;;;;;;;4856337;29;20049;-87
2022/01/25 13:38:16;;;;;;;26.10;11.35;;;;;;;;;;4854343;29;20082;-88
2022/01/25 13:41:42;;;;;;;20.00;11.10;;;;;;;;;;4839185;29;20462;-86
2022/01/25 13:46:26;;;;;;;21.75;10.95;;;;;;;;;;4854531;29;20191;-87
2022/01/25 13:48:56;;;;;;;21.10;10.80;;;;;;;;;;4855294;29;20041;-87
2022/01/25 13:51:26;;;;;;;19.38;10.65;;;;;;;;;;4854404;29;20045;-87
2022/01/25 13:53:59;;;;;;;20.02;11.43;;;;;;;;;;4854623;29;20098;-88
2022/01/25 13:56:33;;;;;;;24.33;11.68;;;;;;;;;;4839487;29;20053;-88
2022/01/25 13:59:02;;;;;;;24.00;10.43;;;;;;;;;;4840409;29;20438;-87
2022/01/25 14:01:32;;;;;;;21.38;10.75;;;;;;;;;;4837523;29;20072;-86
2022/01/25 14:04:00;;;;;;;23.77;11.63;;;;;;;;;;4854590;29;20697;-87
2022/01/25 14:06:30;;;;;;;21.63;10.65;;;;;;;;;;4854605;29;20188;-87
2022/01/25 14:09:16;;;;;;;19.77;10.57;;;;;;;;;;4855042;29;20056;-88
2022/01/25 14:25:04;;;;;;;19.88;10.68;;;;;;;;;;4855302;29;20582;-88
2022/01/25 14:27:39;;;;;;;26.90;11.55;;;;;;;;;;4855400;29;20484;-88
2022/01/25 14:30:06;;;;;;;22.55;12.23;;;;;;;;;;4854591;29;20110;-88
2022/01/25 14:32:35;;;;;;;23.17;10.27;;;;;;;;;;4841471;29;20118;-89
2022/01/25 14:35:07;;;;;;;21.25;10.30;;;;;;;;;;4858440;29;20604;-88
2022/01/25 14:37:40;;;;;;;27.13;12.95;;;;;;;;;;4856265;29;20109;-87
2022/01/25 14:40:10;;;;;;;20.98;12.40;;;;;;;;;;4854475;29;20049;-87
2022/01/25 14:42:41;;;;;;;20.40;11.50;;;;;;;;;;4838798;29;20045;-88
2022/01/25 14:45:14;;;;;;;21.52;11.90;;;;;;;;;;4840676;29;20052;-86
2022/01/25 14:47:45;;;;;;;20.85;11.40;;;;;;;;;;4856087;29;20061;-87
2022/01/25 14:50:22;;;;;;;18.65;10.77;;;;;;;;;;4854321;29;20079;-86
2022/01/25 14:53:01;;;;;;;20.83;10.90;;;;;;;;;;4842180;29;20499;-86
2022/01/25 14:55:29;;;;;;;20.70;11.00;;;;;;;;;;4855056;29;20045;-87
2022/01/25 14:58:20;;;;;;;20.33;11.27;;;;;;;;;;4854656;29;20530;-87
2022/01/25 15:00:54;;;;;;;18.63;10.15;;;;;;;;;;4853967;29;20053;-86
2022/01/25 15:03:23;;;;;;;24.40;10.45;;;;;;;;;;4849534;29;20121;-88
2022/01/25 15:05:52;;;;;;;22.75;10.70;;;;;;;;;;4838188;29;20145;-88
2022/01/25 15:08:21;;;;;;;19.55;10.85;;;;;;;;;;4840158;29;20050;-88
2022/01/25 15:10:49;;;;;;;19.88;9.50;;;;;;;;;;4837949;29;20053;-88
2022/01/25 15:13:24;;;;;;;19.53;10.30;;;;;;;;;;4839332;29;20046;-88
2022/01/25 15:15:56;;;;;;;20.38;11.02;;;;;;;;;;4854666;29;20099;-88
2022/01/25 15:18:22;;;;;;;19.88;11.38;;;;;;;;;;4853704;29;20515;-87
2022/01/25 15:20:49;;;;;;;21.05;10.95;;;;;;;;;;4854150;29;20049;-88
2022/01/25 15:23:21;;;;;;;24.85;11.52;;;;;;;;;;4840452;29;20105;-89
2022/01/25 15:25:54;;;;;;;20.70;12.25;;;;;;;;;;4840899;29;20045;-87
2022/01/25 15:28:23;;;;;;;19.48;10.90;;;;;;;;;;4849226;29;20042;-88
2022/01/25 15:30:50;;;;;;;21.92;10.95;;;;;;;;;;4837988;29;20085;-88
2022/01/25 15:33:17;;;;;;;23.77;12.10;;;;;;;;;;4834135;29;20106;-87
2022/01/25 15:35:44;;;;;;;27.33;14.57;;;;;;;;;;4839925;29;20502;-88
2022/01/25 15:38:11;;;;;;;30.75;14.85;;;;;;;;;;4852755;29;20061;-87
2022/01/25 15:40:37;;;;;;;32.40;16.13;;;;;;;;;;4858267;29;20481;-87
2022/01/25 15:43:06;;;;;;;28.10;14.80;;;;;;;;;;4857237;29;20041;-87
2022/01/25 15:45:53;;;;;;;;;;;;;;;;;;4859634;29;20057;-86
2022/01/25 15:48:20;;;;;;;22.70;12.75;;;;;;;;;;4857061;29;20029;-86
2022/01/25 15:50:47;;;;;;;26.75;13.70;;;;;;;;;;4857366;29;20097;-86
2022/01/25 15:53:13;;;;;;;30.65;13.32;;;;;;;;;;4860114;29;20060;-85
2022/01/25 15:55:40;;;;;;;31.35;13.85;;;;;;;;;;4858246;29;20046;-86
2022/01/25 15:58:07;;;;;;;26.13;12.93;;;;;;;;;;4841134;29;20162;-84
2022/01/25 16:00:34;;;;;;;24.90;13.57;;;;;;;;;;4857067;29;20136;-86
2022/01/25 16:03:03;;;;;;;24.20;13.55;;;;;;;;;;4859083;29;20048;-87
2022/01/25 16:05:30;;;;;;;23.08;13.02;;;;;;;;;;4842816;29;20056;-87
2022/01/25 16:07:57;;;;;;;22.83;12.98;;;;;;;;;;4858215;29;20134;-87
2022/01/25 16:10:24;;;;;;;26.88;14.13;;;;;;;;;;4842484;29;20107;-88
2022/01/25 16:12:50;;;;;;;28.92;15.18;;;;;;;;;;4858729;29;20046;-87
2022/01/25 16:15:17;;;;;;;31.85;14.88;;;;;;;;;;4858819;29;20041;-88
2022/01/25 16:17:44;;;;;;;28.17;14.07;;;;;;;;;;4844609;29;20057;-88
2022/01/25 16:20:12;;;;;;;31.15;15.20;;;;;;;;;;4852770;29;20068;-86
2022/01/25 16:22:39;;;;;;;31.45;15.10;;;;;;;;;;4861335;29;20068;-86
2022/01/25 16:25:06;;;;;;;33.25;14.65;;;;;;;;;;4862524;29;20576;-86
2022/01/25 16:27:33;;;;;;;20.42;13.90;;;;;;;;;;4863703;29;20080;-87
2022/01/25 16:29:59;;;;;;;34.72;15.43;;;;;;;;;;4864392;29;20502;-87
2022/01/25 16:32:34;;;;;;;23.05;15.45;;;;;;;;;;4862541;29;20053;-89
2022/01/25 16:35:03;;;;;;;31.17;14.45;;;;;;;;;;4865835;29;20114;-88
2022/01/25 16:37:29;;;;;;;27.92;13.80;;;;;;;;;;4849606;29;20506;-89
2022/01/25 16:39:56;;;;;;;24.58;13.80;;;;;;;;;;4865937;29;20049;-88
2022/01/25 16:42:23;;;;;;;29.73;14.75;;;;;;;;;;4865141;29;20138;-89
2022/01/25 16:45:02;;;;;;;29.98;15.93;;;;;;;;;;4863265;29;20157;-87
2022/01/25 16:47:32;;;;;;;38.33;19.45;;;;;;;;;;4851401;29;20049;-89
2022/01/25 16:50:00;;;;;;;39.38;19.05;;;;;;;;;;4851949;29;20049;-89
2022/01/25 16:52:27;;;;;;;35.97;19.38;;;;;;;;;;4850654;29;20126;-89
2022/01/25 16:54:53;;;;;;;63.33;31.02;;;;;;;;;;4863704;29;20125;-88
2022/01/25 16:57:41;;;;;;;33.33;17.95;;;;;;;;;;4865278;29;20088;-88
2022/01/25 17:00:11;;;;;;;30.90;15.23;;;;;;;;;;4868326;29;20060;-87
2022/01/25 17:02:39;;;;;;;32.85;14.88;;;;;;;;;;4857076;29;20069;-86
2022/01/25 17:05:07;;;;;;;35.05;18.42;;;;;;;;;;4854660;29;20527;-87
2022/01/25 17:07:34;;;;;;;30.27;17.70;;;;;;;;;;4853189;29;20057;-88
2022/01/25 17:10:04;;;;;;;30.95;16.73;;;;;;;;;;4856170;29;20056;-86
2022/01/25 17:12:31;;;;;;;31.52;15.73;;;;;;;;;;4855941;29;20144;-87
2022/01/25 17:15:07;;;;;;;29.08;15.68;;;;;;;;;;4857168;29;20422;-85
2022/01/25 17:17:35;;;;;;;34.97;18.17;;;;;;;;;;4857483;29;20411;-87
2022/01/25 17:20:04;;;;;;;34.70;16.85;;;;;;;;;;4858447;29;20435;-88
2022/01/25 17:22:32;;;;;;;35.67;16.67;;;;;;;;;;4852128;29;20502;-91
2022/01/25 17:24:59;;;;;;;32.38;16.58;;;;;;;;;;4852753;29;20130;-89
2022/01/25 17:27:26;;;;;;;33.95;16.75;;;;;;;;;;4855032;29;20054;-89
2022/01/25 17:29:53;;;;;;;39.63;18.20;;;;;;;;;;4839115;29;20098;-89
2022/01/25 17:32:20;;;;;;;27.08;15.82;;;;;;;;;;4842544;29;20053;-89
2022/01/25 17:34:46;;;;;;;32.00;18.10;;;;;;;;;;4856207;29;20476;-90
2022/01/25 17:37:16;;;;;;;28.88;17.38;;;;;;;;;;4851690;29;20049;-89
2022/01/25 17:39:44;;;;;;;31.20;17.00;;;;;;;;;;4840900;29;20046;-88
2022/01/25 17:42:11;;;;;;;36.47;17.27;;;;;;;;;;4838917;29;20049;-87
2022/01/25 17:44:38;;;;;;;39.17;17.42;;;;;;;;;;4857584;29;20056;-88
2022/01/25 17:47:06;;;;;;;39.25;20.55;;;;;;;;;;4842090;29;20132;-85
2022/01/25 17:49:33;;;;;;;32.55;18.23;;;;;;;;;;4855840;29;20068;-87
2022/01/25 17:51:59;;;;;;;36.28;17.63;;;;;;;;;;4840057;29;20076;-87
2022/01/25 17:54:32;;;;;;;57.33;30.00;;;;;;;;;;4859998;29;20491;-86
2022/01/25 17:56:59;;;;;;;61.05;29.27;;;;;;;;;;4864787;29;20094;-84
2022/01/25 17:59:26;;;;;;;62.25;29.85;;;;;;;;;;4865750;29;20052;-85
2022/01/25 18:01:57;;;;;;;50.40;20.05;;;;;;;;;;4863885;29;20098;-84
2022/01/25 18:04:24;;;;;;;38.50;18.17;;;;;;;;;;4864122;29;20136;-87
2022/01/25 18:06:52;;;;;;;43.45;20.92;;;;;;;;;;4861585;29;20057;-86
2022/01/25 18:09:19;;;;;;;49.33;24.33;;;;;;;;;;4854403;29;20507;-86
2022/01/25 18:11:47;;;;;;;37.03;21.23;;;;;;;;;;4831733;29;20510;-89
2022/01/25 18:14:14;;;;;;;41.95;22.35;;;;;;;;;;4854024;29;20049;-86
2022/01/25 18:16:41;;;;;;;48.25;22.50;;;;;;;;;;4844719;29;20498;-86
2022/01/25 18:19:09;;;;;;;41.97;19.00;;;;;;;;;;4846539;29;20445;-85
2022/01/25 18:21:39;;;;;;;36.90;17.45;;;;;;;;;;4855457;29;20045;-85
2022/01/25 18:24:14;;;;;;;39.67;16.08;;;;;;;;;;4854571;29;20049;-84
2022/01/25 18:29:08;;;;;;;30.35;16.77;;;;;;;;;;4855876;29;20050;-85
2022/01/25 18:31:36;;;;;;;41.47;22.15;;;;;;;;;;4853255;29;20060;-85
2022/01/25 18:34:03;;;;;;;44.35;23.45;;;;;;;;;;4853937;29;20065;-84
2022/01/25 18:36:30;;;;;;;40.28;20.17;;;;;;;;;;4854639;29;20059;-84
2022/01/25 18:39:18;;;;;;;39.42;21.05;;;;;;;;;;4854830;29;20046;-84
2022/01/25 18:41:48;;;;;;;49.63;20.03;;;;;;;;;;4853839;29;20472;-85
2022/01/25 18:44:16;;;;;;;45.42;24.25;;;;;;;;;;4854846;29;20291;-84
2022/01/25 18:46:43;;;;;;;48.00;23.98;;;;;;;;;;4854106;29;20148;-84
2022/01/25 18:49:10;;;;;;;45.85;22.38;;;;;;;;;;4853841;29;20574;-85
2022/01/25 18:51:39;;;;;;;47.13;21.08;;;;;;;;;;4853701;29;20144;-86
2022/01/25 18:54:07;;;;;;;45.95;21.40;;;;;;;;;;4827294;29;20042;-87
2022/01/25 18:56:35;;;;;;;51.33;23.38;;;;;;;;;;4842398;29;20084;-87
2022/01/25 18:59:02;;;;;;;48.15;22.13;;;;;;;;;;4842147;29;20069;-86
2022/01/25 19:01:31;;;;;;;52.80;22.42;;;;;;;;;;4838637;29;20054;-86
2022/01/25 19:03:59;;;;;;;52.63;20.75;;;;;;;;;;4845709;29;20170;-85
2022/01/25 19:06:29;;;;;;;42.95;19.67;;;;;;;;;;4845601;29;20058;-86
2022/01/25 19:09:01;;;;;;;42.70;20.52;;;;;;;;;;4840222;29;20046;-85
2022/01/25 19:11:28;;;;;;;45.45;21.17;;;;;;;;;;4838047;29;20468;-85
2022/01/25 19:13:56;;;;;;;51.03;24.40;;;;;;;;;;4841097;29;20575;-86
2022/01/25 19:16:23;;;;;;;49.65;23.50;;;;;;;;;;4844825;29;20053;-86
2022/01/25 19:18:51;;;;;;;50.88;25.88;;;;;;;;;;4841996;29;20447;-86
2022/01/25 19:21:18;;;;;;;49.33;24.38;;;;;;;;;;4841281;29;20604;-85
2022/01/25 19:23:44;;;;;;;63.75;28.60;;;;;;;;;;4843116;29;20054;-87
2022/01/25 19:26:11;;;;;;;124.25;63.42;;;;;;;;;;4837123;29;20511;-86
2022/01/25 19:28:38;;;;;;;161.52;81.90;;;;;;;;;;4844001;29;20054;-87
2022/01/25 19:31:05;;;;;;;223.80;106.93;;;;;;;;;;4844418;29;20408;-85
2022/01/25 19:33:31;;;;;;;212.73;112.82;;;;;;;;;;4830445;29;20500;-85
2022/01/25 19:35:59;;;;;;;99.00;48.95;;;;;;;;;;4826930;29;20543;-86
2022/01/25 19:38:27;;;;;;;73.88;35.25;;;;;;;;;;4845717;29;20054;-87
2022/01/25 19:40:58;;;;;;;96.22;52.00;;;;;;;;;;4829071;29;20077;-86
2022/01/25 19:43:25;;;;;;;88.38;38.47;;;;;;;;;;4843197;29;20058;-86
2022/01/25 19:45:52;;;;;;;72.95;38.97;;;;;;;;;;4845788;29;20053;-85
2022/01/25 19:48:19;;;;;;;71.50;33.70;;;;;;;;;;4845135;29;20109;-86
2022/01/25 19:50:45;;;;;;;88.13;42.40;;;;;;;;;;4853050;29;20123;-86
2022/01/25 19:53:19;;;;;;;75.75;36.78;;;;;;;;;;4838672;29;20053;-87
2022/01/25 19:55:53;;;;;;;77.75;37.00;;;;;;;;;;4858598;29;20057;-87
2022/01/25 19:58:21;;;;;;;88.15;39.67;;;;;;;;;;4854924;29;20056;-88
2022/01/25 20:00:48;;;;;;;83.15;37.65;;;;;;;;;;4857005;29;20045;-87
2022/01/25 20:03:15;;;;;;;81.88;35.45;;;;;;;;;;4841136;29;20472;-87
2022/01/25 20:05:42;;;;;;;89.45;36.63;;;;;;;;;;4834942;29;20045;-88
2022/01/25 20:08:09;;;;;;;85.43;37.15;;;;;;;;;;4829983;29;20076;-87
2022/01/25 20:10:37;;;;;;;84.40;35.67;;;;;;;;;;4858569;29;20049;-87
2022/01/25 20:13:04;;;;;;;87.28;38.10;;;;;;;;;;4858006;29;20061;-86
2022/01/25 20:15:42;;;;;;;87.40;36.40;;;;;;;;;;4838987;29;20053;-88
2022/01/25 20:18:09;;;;;;;94.93;38.42;;;;;;;;;;4857677;29;20525;-87
2022/01/25 20:23:22;;;;;;;96.97;42.42;;;;;;;;;;4857813;29;20057;-85
2022/01/25 20:28:27;;;;;;;109.05;44.83;;;;;;;;;;4841731;29;20563;-84
2022/01/25 20:31:03;;;;;;;103.00;43.45;;;;;;;;;;4838665;29;20145;-86
2022/01/25 20:33:33;;;;;;;109.88;42.85;;;;;;;;;;4842251;29;20050;-84
2022/01/25 20:36:00;;;;;;;107.30;42.40;;;;;;;;;;4840539;29;20077;-86
2022/01/25 20:38:27;;;;;;;112.05;43.53;;;;;;;;;;4842085;29;20090;-85
2022/01/25 20:40:55;;;;;;;135.82;47.92;;;;;;;;;;4826735;29;20057;-85
2022/01/25 20:43:27;;;;;;;522.33;49.40;;;;;;;;;;4843040;29;20050;-84
2022/01/25 20:45:56;;;;;;;283.52;45.72;;;;;;;;;;4843430;29;20073;-84
2022/01/25 20:48:25;;;;;;;368.23;43.38;;;;;;;;;;4841953;29;20070;-83
2022/01/25 20:50:53;;;;;;;624.50;54.83;;;;;;;;;;4856445;29;20506;-84
2022/01/25 20:53:21;;;;;;;515.42;48.33;;;;;;;;;;4855926;29;20117;-83
2022/01/25 20:55:49;;;;;;;486.88;48.03;;;;;;;;;;4840348;29;20049;-84
2022/01/25 20:58:16;;;;;;;576.80;49.13;;;;;;;;;;4855830;29;20049;-83
2022/01/25 21:00:50;;;;;;;211.50;42.72;;;;;;;;;;4853347;29;20392;-83
2022/01/25 21:03:45;;;;;;;543.85;47.42;;;;;;;;;;4853586;29;20060;-84
2022/01/25 21:08:56;;;;;;;336.35;41.05;;;;;;;;;;4850912;29;20049;-84
2022/01/25 21:11:24;;;;;;;576.88;47.97;;;;;;;;;;4852058;29;20511;-85
2022/01/25 21:13:51;;;;;;;324.45;44.97;;;;;;;;;;4854125;29;20097;-83
2022/01/25 21:16:19;;;;;;;203.73;40.47;;;;;;;;;;4856488;29;20113;-84
2022/01/25 21:18:46;;;;;;;352.80;45.55;;;;;;;;;;4848213;29;20554;-85
2022/01/25 21:21:16;;;;;;;286.00;43.72;;;;;;;;;;4849030;29;20049;-85
2022/01/25 21:23:48;;;;;;;308.85;44.25;;;;;;;;;;4851989;29;20045;-85
2022/01/25 21:26:18;;;;;;;385.95;41.50;;;;;;;;;;4842731;29;20618;-86
2022/01/25 21:28:47;;;;;;;438.08;44.60;;;;;;;;;;4844688;29;20054;-86
2022/01/25 21:31:14;;;;;;;299.52;43.10;;;;;;;;;;4843980;29;20073;-85
2022/01/25 21:33:42;;;;;;;429.70;46.67;;;;;;;;;;4827975;29;20054;-85
2022/01/25 21:36:09;;;;;;;303.58;40.33;;;;;;;;;;4838305;29;20054;-86
2022/01/25 21:38:35;;;;;;;420.75;45.42;;;;;;;;;;4841505;29;20452;-85
2022/01/25 21:41:03;;;;;;;490.35;48.60;;;;;;;;;;4845696;29;20066;-86
2022/01/25 21:43:31;;;;;;;347.67;44.95;;;;;;;;;;4850593;29;20113;-84
2022/01/25 21:45:58;;;;;;;592.78;55.65;;;;;;;;;;4853076;29;20060;-84
2022/01/25 21:48:25;;;;;;;242.55;44.10;;;;;;;;;;4846509;29;20236;-84
2022/01/25 21:50:52;;;;;;;429.20;49.83;;;;;;;;;;4828460;29;20057;-85
2022/01/25 21:53:19;;;;;;;396.67;48.03;;;;;;;;;;4832529;29;20050;-85
2022/01/25 21:55:46;;;;;;;584.65;54.67;;;;;;;;;;4850375;29;20053;-85
2022/01/25 21:58:15;;;;;;;415.02;50.00;;;;;;;;;;4846695;29;20114;-86
2022/01/25 22:00:43;;;;;;;421.35;50.85;;;;;;;;;;4855723;29;20110;-85
2022/01/25 22:05:50;;;;;;;390.27;48.55;;;;;;;;;;4841499;29;20097;-83
2022/01/25 22:08:26;;;;;;;389.48;49.67;;;;;;;;;;4841327;29;20464;-84
2022/01/25 22:10:54;;;;;;;391.08;51.85;;;;;;;;;;4841737;29;20057;-84